עמוד ראשי
METAR-TAF:

METAR-TAF

שדות תעופה :

שטוטגרט, גרמניה

קו רוחב: 48-41N, קו אורך: 009-13E, גובה: 396מטר

תצפית מזג אוויר נוכחית

הדו"ח נערך לפני 26דקות, בשעה 08:20 UTC
רוח 10קשר מכיוון צפון-מזרח
טמפרטורת -5 צלסיוס
לחות 79%
לחץ 1030 hPa
ראות 10 קילומטר או יותר
עננים בינוניים בגובה 1800רגל

METAR: EDDS 170820Z 05010KT 9999 BKN018 M05/M08 Q1030 NOSIG

זמן: 09:46 (08:46 UTC)

תחזית

הדו"ח נערך לפני 3 שעות ו 46דקות, בשעה 05:00 UTC
תחזית בתוקף מ 17 ב 06 UTC עד 18 ב 06 UTC
רוח 9קשר מכיוון צפון-מזרח
ראות 10 קילומטר או יותר
עננים בינוניים בגובה 1400רגל
יעשה מ
17 ב 07 UTC עד 17 ב 10 UTC
עננים בינוניים בגובה 2000רגל

TAF: EDDS 170500Z 1706/1806 04009KT 9999 BKN014 BECMG 1707/1710 BKN020

תצפיות ותחזיות מזג אוויר לגבי יותר מ- 4,000 שדות תעופה ברחבי העולם. דוחות METAR ו- TAF.

התחנות הזמינות מסומנות בנקודות צהובות ואדומות על גבי המפה.

העבר את העכבר לנקודה הצבעונית על מנת לראות את שם התחנה.

לאחר מכן, לחץ כדי לראות את תוכן ואת תחזיות מזג האוויר.

כדי לשנות את המפה: לחץ על הכפתורים הירוקים עם הפלוס השחור כדי להתקרב; על הכפתור הירוק עם המקף כדי להתרחק; או בחיצים הירוקים למפות סמוכות.


METAR-TAF: